sensor_id;sensor_type;location;lat;lon;timestamp;P1;durP1;ratioP1;P2;durP2;ratioP2
51312;SDS011;37397;53.226;10.400;2022-11-15T00:01:08;36.97;;;24.08;;
51312;SDS011;37397;53.226;10.400;2022-11-15T00:03:55;39.35;;;24.25;;
51312;SDS011;37397;53.226;10.400;2022-11-15T00:06:40;41.35;;;24.17;;
51312;SDS011;37397;53.226;10.400;2022-11-15T00:09:25;35.30;;;22.90;;
51312;SDS011;37397;53.226;10.400;2022-11-15T00:12:10;41.53;;;24.90;;
51312;SDS011;37397;53.226;10.400;2022-11-15T00:14:55;36.83;;;23.77;;
51312;SDS011;37397;53.226;10.400;2022-11-15T00:17:40;34.78;;;23.33;;
51312;SDS011;37397;53.226;10.400;2022-11-15T00:20:25;35.47;;;22.25;;
51312;SDS011;37397;53.226;10.400;2022-11-15T00:23:10;35.65;;;22.77;;
51312;SDS011;37397;53.226;10.400;2022-11-15T00:25:58;38.03;;;23.92;;
51312;SDS011;37397;53.226;10.400;2022-11-15T00:28:44;37.72;;;23.35;;
51312;SDS011;37397;53.226;10.400;2022-11-15T00:31:29;33.67;;;22.23;;
51312;SDS011;37397;53.226;10.400;2022-11-15T00:34:14;35.75;;;23.20;;
51312;SDS011;37397;53.226;10.400;2022-11-15T00:36:59;36.08;;;23.58;;
51312;SDS011;37397;53.226;10.400;2022-11-15T00:39:44;32.70;;;21.52;;
51312;SDS011;37397;53.226;10.400;2022-11-15T00:42:30;33.67;;;22.48;;
51312;SDS011;37397;53.226;10.400;2022-11-15T00:45:15;36.25;;;22.90;;
51312;SDS011;37397;53.226;10.400;2022-11-15T00:48:00;33.40;;;21.83;;
51312;SDS011;37397;53.226;10.400;2022-11-15T00:50:45;32.30;;;21.00;;
51312;SDS011;37397;53.226;10.400;2022-11-15T00:53:30;34.60;;;22.25;;
51312;SDS011;37397;53.226;10.400;2022-11-15T00:56:16;30.90;;;21.25;;
51312;SDS011;37397;53.226;10.400;2022-11-15T00:59:02;31.90;;;21.58;;
51312;SDS011;37397;53.226;10.400;2022-11-15T01:01:47;30.27;;;20.40;;
51312;SDS011;37397;53.226;10.400;2022-11-15T01:04:32;31.23;;;21.00;;
51312;SDS011;37397;53.226;10.400;2022-11-15T01:07:18;30.73;;;21.63;;
51312;SDS011;37397;53.226;10.400;2022-11-15T01:10:03;32.17;;;21.98;;
51312;SDS011;37397;53.226;10.400;2022-11-15T01:12:49;32.95;;;21.75;;
51312;SDS011;37397;53.226;10.400;2022-11-15T01:15:38;33.20;;;21.60;;
51312;SDS011;37397;53.226;10.400;2022-11-15T01:18:24;33.70;;;21.45;;
51312;SDS011;37397;53.226;10.400;2022-11-15T01:21:09;33.25;;;20.83;;
51312;SDS011;37397;53.226;10.400;2022-11-15T01:23:57;30.20;;;21.02;;
51312;SDS011;37397;53.226;10.400;2022-11-15T01:26:42;32.47;;;21.23;;
51312;SDS011;37397;53.226;10.400;2022-11-15T01:29:27;31.45;;;21.50;;
51312;SDS011;37397;53.226;10.400;2022-11-15T01:32:12;31.95;;;20.83;;
51312;SDS011;37397;53.226;10.400;2022-11-15T01:34:58;30.92;;;21.25;;
51312;SDS011;37397;53.226;10.400;2022-11-15T01:37:43;31.98;;;21.08;;
51312;SDS011;37397;53.226;10.400;2022-11-15T01:40:27;31.58;;;21.33;;
51312;SDS011;37397;53.226;10.400;2022-11-15T01:46:15;31.65;;;21.17;;
51312;SDS011;37397;53.226;10.400;2022-11-15T01:49:13;30.67;;;19.70;;
51312;SDS011;37397;53.226;10.400;2022-11-15T01:52:02;29.15;;;19.92;;
51312;SDS011;37397;53.226;10.400;2022-11-15T01:54:50;30.17;;;20.08;;
51312;SDS011;37397;53.226;10.400;2022-11-15T01:57:40;30.88;;;19.85;;
51312;SDS011;37397;53.226;10.400;2022-11-15T02:00:29;30.42;;;20.42;;
51312;SDS011;37397;53.226;10.400;2022-11-15T02:03:15;32.25;;;20.55;;
51312;SDS011;37397;53.226;10.400;2022-11-15T02:06:01;31.35;;;20.50;;
51312;SDS011;37397;53.226;10.400;2022-11-15T02:08:49;28.27;;;19.00;;
51312;SDS011;37397;53.226;10.400;2022-11-15T02:11:35;31.10;;;20.10;;
51312;SDS011;37397;53.226;10.400;2022-11-15T02:14:21;32.20;;;20.10;;
51312;SDS011;37397;53.226;10.400;2022-11-15T02:23:49;31.23;;;19.05;;
51312;SDS011;37397;53.226;10.400;2022-11-15T02:26:58;28.25;;;19.30;;
51312;SDS011;37397;53.226;10.400;2022-11-15T02:42:26;29.50;;;19.05;;
51312;SDS011;37397;53.226;10.400;2022-11-15T02:45:35;31.00;;;19.35;;
51312;SDS011;37397;53.226;10.400;2022-11-15T02:48:23;26.38;;;18.23;;
51312;SDS011;37397;53.226;10.400;2022-11-15T02:51:11;27.95;;;18.67;;
51312;SDS011;37397;53.226;10.400;2022-11-15T02:53:58;29.23;;;19.60;;
51312;SDS011;37397;53.226;10.400;2022-11-15T02:56:43;29.75;;;19.30;;
51312;SDS011;37397;53.226;10.400;2022-11-15T03:05:48;29.55;;;19.30;;
51312;SDS011;37397;53.226;10.400;2022-11-15T03:11:41;29.00;;;18.67;;
51312;SDS011;37397;53.226;10.400;2022-11-15T03:14:35;31.15;;;19.00;;
51312;SDS011;37397;53.226;10.400;2022-11-15T03:17:29;28.05;;;18.45;;
51312;SDS011;37397;53.226;10.400;2022-11-15T03:20:17;28.67;;;18.73;;
51312;SDS011;37397;53.226;10.400;2022-11-15T03:23:05;28.48;;;17.92;;
51312;SDS011;37397;53.226;10.400;2022-11-15T03:25:53;29.60;;;19.80;;
51312;SDS011;37397;53.226;10.400;2022-11-15T03:28:46;34.90;;;18.80;;
51312;SDS011;37397;53.226;10.400;2022-11-15T03:31:39;28.13;;;18.92;;
51312;SDS011;37397;53.226;10.400;2022-11-15T03:34:56;27.58;;;18.00;;
51312;SDS011;37397;53.226;10.400;2022-11-15T03:40:48;26.80;;;17.58;;
51312;SDS011;37397;53.226;10.400;2022-11-15T03:43:47;26.40;;;17.17;;
51312;SDS011;37397;53.226;10.400;2022-11-15T03:46:45;27.25;;;17.45;;
51312;SDS011;37397;53.226;10.400;2022-11-15T03:49:36;26.23;;;17.52;;
51312;SDS011;37397;53.226;10.400;2022-11-15T03:52:30;27.10;;;17.27;;
51312;SDS011;37397;53.226;10.400;2022-11-15T03:55:18;24.42;;;16.85;;
51312;SDS011;37397;53.226;10.400;2022-11-15T03:58:04;28.15;;;17.33;;
51312;SDS011;37397;53.226;10.400;2022-11-15T04:00:49;26.92;;;17.10;;
51312;SDS011;37397;53.226;10.400;2022-11-15T04:03:35;26.00;;;17.08;;
51312;SDS011;37397;53.226;10.400;2022-11-15T04:06:20;27.05;;;17.45;;
51312;SDS011;37397;53.226;10.400;2022-11-15T04:09:05;26.58;;;17.17;;
51312;SDS011;37397;53.226;10.400;2022-11-15T04:11:50;25.40;;;16.85;;
51312;SDS011;37397;53.226;10.400;2022-11-15T04:14:35;27.88;;;16.55;;
51312;SDS011;37397;53.226;10.400;2022-11-15T04:17:21;28.30;;;17.08;;
51312;SDS011;37397;53.226;10.400;2022-11-15T04:20:18;26.17;;;16.70;;
51312;SDS011;37397;53.226;10.400;2022-11-15T04:23:32;26.05;;;16.52;;
51312;SDS011;37397;53.226;10.400;2022-11-15T04:26:36;25.23;;;16.75;;
51312;SDS011;37397;53.226;10.400;2022-11-15T04:29:21;25.55;;;16.58;;
51312;SDS011;37397;53.226;10.400;2022-11-15T04:32:19;23.38;;;15.85;;
51312;SDS011;37397;53.226;10.400;2022-11-15T04:35:04;24.02;;;16.17;;
51312;SDS011;37397;53.226;10.400;2022-11-15T04:37:50;24.58;;;15.93;;
51312;SDS011;37397;53.226;10.400;2022-11-15T04:40:36;25.73;;;16.10;;
51312;SDS011;37397;53.226;10.400;2022-11-15T04:43:22;25.55;;;16.30;;
51312;SDS011;37397;53.226;10.400;2022-11-15T04:46:07;25.05;;;16.33;;
51312;SDS011;37397;53.226;10.400;2022-11-15T04:48:54;23.75;;;15.57;;
51312;SDS011;37397;53.226;10.400;2022-11-15T04:51:42;25.92;;;16.83;;
51312;SDS011;37397;53.226;10.400;2022-11-15T04:54:28;24.23;;;15.68;;
51312;SDS011;37397;53.226;10.400;2022-11-15T04:57:13;23.88;;;16.63;;
51312;SDS011;37397;53.226;10.400;2022-11-15T04:59:59;24.52;;;15.52;;
51312;SDS011;37397;53.226;10.400;2022-11-15T05:02:44;23.50;;;15.73;;
51312;SDS011;37397;53.226;10.400;2022-11-15T05:05:48;23.08;;;15.57;;
51312;SDS011;37397;53.226;10.400;2022-11-15T05:08:33;24.30;;;15.65;;
51312;SDS011;37397;53.226;10.400;2022-11-15T05:11:19;27.20;;;15.77;;
51312;SDS011;37397;53.226;10.400;2022-11-15T05:14:05;25.95;;;16.10;;
51312;SDS011;37397;53.226;10.400;2022-11-15T05:16:50;22.83;;;15.60;;
51312;SDS011;37397;53.226;10.400;2022-11-15T05:19:35;23.80;;;15.18;;
51312;SDS011;37397;53.226;10.400;2022-11-15T05:22:21;24.55;;;16.55;;
51312;SDS011;37397;53.226;10.400;2022-11-15T05:25:07;25.33;;;15.05;;
51312;SDS011;37397;53.226;10.400;2022-11-15T05:27:52;27.95;;;17.75;;
51312;SDS011;37397;53.226;10.400;2022-11-15T05:30:38;27.13;;;16.90;;
51312;SDS011;37397;53.226;10.400;2022-11-15T05:33:23;24.55;;;16.70;;
51312;SDS011;37397;53.226;10.400;2022-11-15T05:36:13;28.13;;;17.08;;
51312;SDS011;37397;53.226;10.400;2022-11-15T05:39:19;28.58;;;16.95;;
51312;SDS011;37397;53.226;10.400;2022-11-15T05:42:09;25.02;;;16.10;;
51312;SDS011;37397;53.226;10.400;2022-11-15T05:44:56;25.95;;;16.70;;
51312;SDS011;37397;53.226;10.400;2022-11-15T05:47:43;27.23;;;17.15;;
51312;SDS011;37397;53.226;10.400;2022-11-15T05:50:29;27.52;;;17.27;;
51312;SDS011;37397;53.226;10.400;2022-11-15T05:53:16;26.85;;;17.27;;
51312;SDS011;37397;53.226;10.400;2022-11-15T05:56:04;26.58;;;16.45;;
51312;SDS011;37397;53.226;10.400;2022-11-15T05:58:52;27.70;;;17.38;;
51312;SDS011;37397;53.226;10.400;2022-11-15T06:01:44;25.40;;;16.13;;
51312;SDS011;37397;53.226;10.400;2022-11-15T06:04:30;25.83;;;15.70;;
51312;SDS011;37397;53.226;10.400;2022-11-15T06:07:15;27.77;;;17.58;;
51312;SDS011;37397;53.226;10.400;2022-11-15T06:10:00;28.25;;;17.45;;
51312;SDS011;37397;53.226;10.400;2022-11-15T06:12:46;23.58;;;14.90;;
51312;SDS011;37397;53.226;10.400;2022-11-15T06:15:31;25.70;;;17.20;;
51312;SDS011;37397;53.226;10.400;2022-11-15T06:18:18;26.02;;;16.80;;
51312;SDS011;37397;53.226;10.400;2022-11-15T06:21:04;23.45;;;15.48;;
51312;SDS011;37397;53.226;10.400;2022-11-15T06:23:50;24.70;;;16.20;;
51312;SDS011;37397;53.226;10.400;2022-11-15T06:26:35;27.40;;;15.82;;
51312;SDS011;37397;53.226;10.400;2022-11-15T06:29:20;27.25;;;16.77;;
51312;SDS011;37397;53.226;10.400;2022-11-15T06:32:05;25.40;;;16.70;;
51312;SDS011;37397;53.226;10.400;2022-11-15T06:34:50;24.70;;;15.75;;
51312;SDS011;37397;53.226;10.400;2022-11-15T06:37:35;23.95;;;16.35;;
51312;SDS011;37397;53.226;10.400;2022-11-15T06:40:20;25.15;;;16.15;;
51312;SDS011;37397;53.226;10.400;2022-11-15T06:43:06;25.83;;;16.60;;
51312;SDS011;37397;53.226;10.400;2022-11-15T06:45:52;27.85;;;17.27;;
51312;SDS011;37397;53.226;10.400;2022-11-15T06:48:37;27.35;;;17.33;;
51312;SDS011;37397;53.226;10.400;2022-11-15T06:51:22;25.23;;;16.23;;
51312;SDS011;37397;53.226;10.400;2022-11-15T06:54:07;23.95;;;16.00;;
51312;SDS011;37397;53.226;10.400;2022-11-15T06:56:52;28.88;;;17.73;;
51312;SDS011;37397;53.226;10.400;2022-11-15T06:59:37;26.00;;;17.08;;
51312;SDS011;37397;53.226;10.400;2022-11-15T07:02:24;26.88;;;16.67;;
51312;SDS011;37397;53.226;10.400;2022-11-15T07:05:09;28.13;;;16.80;;
51312;SDS011;37397;53.226;10.400;2022-11-15T07:07:55;24.77;;;17.05;;
51312;SDS011;37397;53.226;10.400;2022-11-15T07:10:41;25.92;;;16.42;;
51312;SDS011;37397;53.226;10.400;2022-11-15T07:13:27;30.60;;;17.70;;
51312;SDS011;37397;53.226;10.400;2022-11-15T07:16:14;24.85;;;15.35;;
51312;SDS011;37397;53.226;10.400;2022-11-15T07:18:59;25.48;;;16.48;;
51312;SDS011;37397;53.226;10.400;2022-11-15T07:21:44;26.85;;;16.17;;
51312;SDS011;37397;53.226;10.400;2022-11-15T07:24:29;24.55;;;15.60;;
51312;SDS011;37397;53.226;10.400;2022-11-15T07:27:14;25.50;;;16.48;;
51312;SDS011;37397;53.226;10.400;2022-11-15T07:29:59;24.77;;;16.00;;
51312;SDS011;37397;53.226;10.400;2022-11-15T07:32:45;25.30;;;16.15;;
51312;SDS011;37397;53.226;10.400;2022-11-15T07:35:31;24.80;;;16.17;;
51312;SDS011;37397;53.226;10.400;2022-11-15T07:38:16;26.20;;;17.65;;
51312;SDS011;37397;53.226;10.400;2022-11-15T07:41:04;26.63;;;17.40;;
51312;SDS011;37397;53.226;10.400;2022-11-15T07:43:51;22.80;;;15.85;;
51312;SDS011;37397;53.226;10.400;2022-11-15T07:46:37;27.83;;;17.05;;
51312;SDS011;37397;53.226;10.400;2022-11-15T07:49:22;24.88;;;16.67;;
51312;SDS011;37397;53.226;10.400;2022-11-15T07:52:07;26.77;;;17.23;;
51312;SDS011;37397;53.226;10.400;2022-11-15T07:54:52;25.45;;;16.33;;
51312;SDS011;37397;53.226;10.400;2022-11-15T07:57:37;25.88;;;16.70;;
51312;SDS011;37397;53.226;10.400;2022-11-15T08:00:22;23.45;;;16.20;;
51312;SDS011;37397;53.226;10.400;2022-11-15T08:03:09;25.85;;;16.17;;
51312;SDS011;37397;53.226;10.400;2022-11-15T08:05:56;24.98;;;15.73;;
51312;SDS011;37397;53.226;10.400;2022-11-15T08:08:41;27.10;;;16.33;;
51312;SDS011;37397;53.226;10.400;2022-11-15T08:11:26;27.77;;;16.38;;
51312;SDS011;37397;53.226;10.400;2022-11-15T08:14:11;26.70;;;16.48;;
51312;SDS011;37397;53.226;10.400;2022-11-15T08:16:56;24.35;;;15.68;;
51312;SDS011;37397;53.226;10.400;2022-11-15T08:19:41;24.88;;;15.82;;
51312;SDS011;37397;53.226;10.400;2022-11-15T08:22:26;22.40;;;14.80;;
51312;SDS011;37397;53.226;10.400;2022-11-15T08:25:12;23.65;;;15.50;;
51312;SDS011;37397;53.226;10.400;2022-11-15T08:27:59;25.50;;;16.27;;
51312;SDS011;37397;53.226;10.400;2022-11-15T08:30:46;23.42;;;16.08;;
51312;SDS011;37397;53.226;10.400;2022-11-15T08:33:32;26.70;;;17.40;;
51312;SDS011;37397;53.226;10.400;2022-11-15T08:36:18;40.58;;;23.45;;
51312;SDS011;37397;53.226;10.400;2022-11-15T08:39:03;36.47;;;22.00;;
51312;SDS011;37397;53.226;10.400;2022-11-15T08:41:49;31.58;;;19.02;;
51312;SDS011;37397;53.226;10.400;2022-11-15T08:44:35;31.02;;;19.40;;
51312;SDS011;37397;53.226;10.400;2022-11-15T08:47:20;30.73;;;17.92;;
51312;SDS011;37397;53.226;10.400;2022-11-15T08:50:05;27.63;;;17.38;;
51312;SDS011;37397;53.226;10.400;2022-11-15T08:52:51;24.92;;;17.83;;
51312;SDS011;37397;53.226;10.400;2022-11-15T08:55:37;27.67;;;16.63;;
51312;SDS011;37397;53.226;10.400;2022-11-15T08:58:22;22.50;;;15.50;;
51312;SDS011;37397;53.226;10.400;2022-11-15T09:01:14;26.63;;;16.23;;
51312;SDS011;37397;53.226;10.400;2022-11-15T09:04:02;26.20;;;15.90;;
51312;SDS011;37397;53.226;10.400;2022-11-15T09:06:48;25.55;;;15.05;;
51312;SDS011;37397;53.226;10.400;2022-11-15T09:09:33;22.70;;;15.80;;
51312;SDS011;37397;53.226;10.400;2022-11-15T09:12:18;24.70;;;16.70;;
51312;SDS011;37397;53.226;10.400;2022-11-15T09:15:04;23.70;;;16.52;;
51312;SDS011;37397;53.226;10.400;2022-11-15T09:17:50;28.83;;;15.88;;
51312;SDS011;37397;53.226;10.400;2022-11-15T09:20:35;24.95;;;15.57;;
51312;SDS011;37397;53.226;10.400;2022-11-15T09:23:20;23.45;;;15.07;;
51312;SDS011;37397;53.226;10.400;2022-11-15T09:26:05;26.25;;;16.13;;
51312;SDS011;37397;53.226;10.400;2022-11-15T09:28:50;23.33;;;15.25;;
51312;SDS011;37397;53.226;10.400;2022-11-15T09:31:36;24.25;;;15.73;;
51312;SDS011;37397;53.226;10.400;2022-11-15T09:34:21;23.15;;;15.43;;
51312;SDS011;37397;53.226;10.400;2022-11-15T09:37:06;24.73;;;14.77;;
51312;SDS011;37397;53.226;10.400;2022-11-15T09:39:51;27.83;;;16.35;;
51312;SDS011;37397;53.226;10.400;2022-11-15T09:45:55;23.80;;;16.05;;
51312;SDS011;37397;53.226;10.400;2022-11-15T09:49:09;24.23;;;15.48;;
51312;SDS011;37397;53.226;10.400;2022-11-15T09:51:53;22.10;;;14.63;;
51312;SDS011;37397;53.226;10.400;2022-11-15T09:57:12;20.98;;;14.25;;
51312;SDS011;37397;53.226;10.400;2022-11-15T09:59:46;19.90;;;14.43;;
51312;SDS011;37397;53.226;10.400;2022-11-15T10:03:10;22.50;;;13.85;;
51312;SDS011;37397;53.226;10.400;2022-11-15T10:05:43;22.77;;;14.45;;
51312;SDS011;37397;53.226;10.400;2022-11-15T10:11:17;22.25;;;13.98;;
51312;SDS011;37397;53.226;10.400;2022-11-15T10:14:05;19.20;;;13.18;;
51312;SDS011;37397;53.226;10.400;2022-11-15T10:19:34;22.63;;;13.20;;
51312;SDS011;37397;53.226;10.400;2022-11-15T10:22:16;19.40;;;13.02;;
51312;SDS011;37397;53.226;10.400;2022-11-15T10:24:48;19.50;;;12.73;;
51312;SDS011;37397;53.226;10.400;2022-11-15T10:27:18;23.33;;;14.00;;
51312;SDS011;37397;53.226;10.400;2022-11-15T10:29:46;23.05;;;14.20;;
51312;SDS011;37397;53.226;10.400;2022-11-15T10:32:16;18.75;;;12.13;;
51312;SDS011;37397;53.226;10.400;2022-11-15T10:34:45;22.23;;;12.43;;
51312;SDS011;37397;53.226;10.400;2022-11-15T10:37:13;18.35;;;12.55;;
51312;SDS011;37397;53.226;10.400;2022-11-15T10:39:39;21.02;;;12.95;;
51312;SDS011;37397;53.226;10.400;2022-11-15T10:42:17;20.65;;;12.50;;
51312;SDS011;37397;53.226;10.400;2022-11-15T10:44:54;17.88;;;12.05;;
51312;SDS011;37397;53.226;10.400;2022-11-15T10:47:22;21.10;;;13.07;;
51312;SDS011;37397;53.226;10.400;2022-11-15T10:49:53;19.98;;;12.05;;
51312;SDS011;37397;53.226;10.400;2022-11-15T10:52:24;20.08;;;12.10;;
51312;SDS011;37397;53.226;10.400;2022-11-15T10:54:53;18.50;;;12.10;;
51312;SDS011;37397;53.226;10.400;2022-11-15T10:57:28;18.17;;;11.70;;
51312;SDS011;37397;53.226;10.400;2022-11-15T11:00:02;19.98;;;12.38;;
51312;SDS011;37397;53.226;10.400;2022-11-15T11:05:29;21.00;;;11.98;;
51312;SDS011;37397;53.226;10.400;2022-11-15T11:10:39;18.02;;;11.57;;
51312;SDS011;37397;53.226;10.400;2022-11-15T11:13:33;22.08;;;12.57;;
51312;SDS011;37397;53.226;10.400;2022-11-15T11:24:34;19.48;;;12.23;;
51312;SDS011;37397;53.226;10.400;2022-11-15T11:29:58;17.45;;;11.55;;
51312;SDS011;37397;53.226;10.400;2022-11-15T11:49:15;16.15;;;10.60;;
51312;SDS011;37397;53.226;10.400;2022-11-15T11:52:11;18.70;;;10.43;;
51312;SDS011;37397;53.226;10.400;2022-11-15T12:00:33;13.80;;;9.05;;
51312;SDS011;37397;53.226;10.400;2022-11-15T12:03:10;16.15;;;10.48;;
51312;SDS011;37397;53.226;10.400;2022-11-15T12:05:44;15.55;;;9.82;;
51312;SDS011;37397;53.226;10.400;2022-11-15T12:08:31;15.43;;;9.63;;
51312;SDS011;37397;53.226;10.400;2022-11-15T12:11:18;14.07;;;9.15;;
51312;SDS011;37397;53.226;10.400;2022-11-15T12:13:50;13.77;;;9.45;;
51312;SDS011;37397;53.226;10.400;2022-11-15T12:16:26;15.40;;;9.45;;
51312;SDS011;37397;53.226;10.400;2022-11-15T12:18:56;13.57;;;9.15;;
51312;SDS011;37397;53.226;10.400;2022-11-15T12:22:28;13.80;;;9.65;;
51312;SDS011;37397;53.226;10.400;2022-11-15T12:24:48;14.43;;;8.60;;
51312;SDS011;37397;53.226;10.400;2022-11-15T12:27:38;13.57;;;8.65;;
51312;SDS011;37397;53.226;10.400;2022-11-15T12:30:11;13.63;;;9.13;;
51312;SDS011;37397;53.226;10.400;2022-11-15T12:33:00;17.05;;;8.85;;
51312;SDS011;37397;53.226;10.400;2022-11-15T12:37:59;16.80;;;9.00;;
51312;SDS011;37397;53.226;10.400;2022-11-15T12:43:49;14.90;;;8.90;;
51312;SDS011;37397;53.226;10.400;2022-11-15T12:46:20;18.17;;;8.82;;
51312;SDS011;37397;53.226;10.400;2022-11-15T12:48:49;18.52;;;8.82;;
51312;SDS011;37397;53.226;10.400;2022-11-15T12:51:22;13.35;;;7.75;;
51312;SDS011;37397;53.226;10.400;2022-11-15T13:02:21;15.63;;;9.40;;
51312;SDS011;37397;53.226;10.400;2022-11-15T13:04:53;12.35;;;8.60;;
51312;SDS011;37397;53.226;10.400;2022-11-15T13:17:38;13.68;;;8.88;;
51312;SDS011;37397;53.226;10.400;2022-11-15T13:20:23;16.42;;;9.10;;
51312;SDS011;37397;53.226;10.400;2022-11-15T13:23:00;14.18;;;9.13;;
51312;SDS011;37397;53.226;10.400;2022-11-15T13:25:59;14.38;;;9.40;;
51312;SDS011;37397;53.226;10.400;2022-11-15T13:28:46;13.07;;;8.90;;
51312;SDS011;37397;53.226;10.400;2022-11-15T13:31:22;13.82;;;9.05;;
51312;SDS011;37397;53.226;10.400;2022-11-15T13:33:51;12.90;;;8.57;;
51312;SDS011;37397;53.226;10.400;2022-11-15T13:36:25;14.57;;;8.98;;
51312;SDS011;37397;53.226;10.400;2022-11-15T13:38:56;13.50;;;8.55;;
51312;SDS011;37397;53.226;10.400;2022-11-15T13:41:31;14.75;;;8.68;;
51312;SDS011;37397;53.226;10.400;2022-11-15T13:43:59;12.43;;;8.27;;
51312;SDS011;37397;53.226;10.400;2022-11-15T13:46:28;14.68;;;8.00;;
51312;SDS011;37397;53.226;10.400;2022-11-15T13:48:57;12.30;;;7.97;;
51312;SDS011;37397;53.226;10.400;2022-11-15T13:51:30;13.40;;;8.25;;
51312;SDS011;37397;53.226;10.400;2022-11-15T13:54:12;14.13;;;8.47;;
51312;SDS011;37397;53.226;10.400;2022-11-15T13:56:52;12.25;;;8.00;;
51312;SDS011;37397;53.226;10.400;2022-11-15T13:59:25;11.23;;;8.35;;
51312;SDS011;37397;53.226;10.400;2022-11-15T14:01:53;14.80;;;8.30;;
51312;SDS011;37397;53.226;10.400;2022-11-15T14:04:23;14.65;;;8.73;;
51312;SDS011;37397;53.226;10.400;2022-11-15T14:06:52;11.13;;;7.97;;
51312;SDS011;37397;53.226;10.400;2022-11-15T14:11:54;14.90;;;8.13;;
51312;SDS011;37397;53.226;10.400;2022-11-15T14:14:25;12.27;;;7.63;;
51312;SDS011;37397;53.226;10.400;2022-11-15T14:16:54;13.38;;;8.38;;
51312;SDS011;37397;53.226;10.400;2022-11-15T14:24:37;15.18;;;8.68;;
51312;SDS011;37397;53.226;10.400;2022-11-15T14:29:53;12.07;;;8.27;;
51312;SDS011;37397;53.226;10.400;2022-11-15T14:32:22;16.13;;;8.48;;
51312;SDS011;37397;53.226;10.400;2022-11-15T14:34:57;13.25;;;8.32;;
51312;SDS011;37397;53.226;10.400;2022-11-15T14:37:33;12.82;;;8.05;;
51312;SDS011;37397;53.226;10.400;2022-11-15T14:40:01;12.65;;;8.30;;
51312;SDS011;37397;53.226;10.400;2022-11-15T14:42:30;12.30;;;8.15;;
51312;SDS011;37397;53.226;10.400;2022-11-15T14:44:57;12.27;;;8.32;;
51312;SDS011;37397;53.226;10.400;2022-11-15T14:47:24;13.43;;;8.55;;
51312;SDS011;37397;53.226;10.400;2022-11-15T14:49:50;13.00;;;7.63;;
51312;SDS011;37397;53.226;10.400;2022-11-15T14:52:23;13.63;;;7.75;;
51312;SDS011;37397;53.226;10.400;2022-11-15T14:54:58;13.40;;;8.07;;
51312;SDS011;37397;53.226;10.400;2022-11-15T14:57:27;13.13;;;7.82;;
51312;SDS011;37397;53.226;10.400;2022-11-15T14:59:54;13.95;;;8.23;;
51312;SDS011;37397;53.226;10.400;2022-11-15T15:02:21;12.50;;;7.78;;
51312;SDS011;37397;53.226;10.400;2022-11-15T15:04:49;13.95;;;7.88;;
51312;SDS011;37397;53.226;10.400;2022-11-15T15:07:17;13.20;;;8.13;;
51312;SDS011;37397;53.226;10.400;2022-11-15T15:09:44;14.70;;;8.07;;
51312;SDS011;37397;53.226;10.400;2022-11-15T15:12:18;17.08;;;8.88;;
51312;SDS011;37397;53.226;10.400;2022-11-15T15:14:47;15.27;;;7.75;;
51312;SDS011;37397;53.226;10.400;2022-11-15T15:17:15;12.90;;;7.88;;
51312;SDS011;37397;53.226;10.400;2022-11-15T15:19:42;13.85;;;8.18;;
51312;SDS011;37397;53.226;10.400;2022-11-15T15:22:11;16.02;;;7.90;;
51312;SDS011;37397;53.226;10.400;2022-11-15T15:24:40;12.55;;;8.13;;
51312;SDS011;37397;53.226;10.400;2022-11-15T15:27:07;14.38;;;8.40;;
51312;SDS011;37397;53.226;10.400;2022-11-15T15:29:33;13.02;;;8.32;;
51312;SDS011;37397;53.226;10.400;2022-11-15T15:31:59;13.20;;;8.52;;
51312;SDS011;37397;53.226;10.400;2022-11-15T15:34:26;12.88;;;7.97;;
51312;SDS011;37397;53.226;10.400;2022-11-15T15:37:08;13.00;;;8.55;;
51312;SDS011;37397;53.226;10.400;2022-11-15T15:39:45;13.93;;;7.95;;
51312;SDS011;37397;53.226;10.400;2022-11-15T15:42:11;12.43;;;7.88;;
51312;SDS011;37397;53.226;10.400;2022-11-15T15:44:38;16.45;;;8.07;;
51312;SDS011;37397;53.226;10.400;2022-11-15T15:47:10;17.77;;;7.90;;
51312;SDS011;37397;53.226;10.400;2022-11-15T15:49:38;15.68;;;8.43;;
51312;SDS011;37397;53.226;10.400;2022-11-15T15:52:07;14.07;;;7.93;;
51312;SDS011;37397;53.226;10.400;2022-11-15T15:54:46;11.23;;;7.60;;
51312;SDS011;37397;53.226;10.400;2022-11-15T15:57:13;12.38;;;7.60;;
51312;SDS011;37397;53.226;10.400;2022-11-15T15:59:40;12.82;;;8.30;;
51312;SDS011;37397;53.226;10.400;2022-11-15T16:02:08;14.40;;;8.05;;
51312;SDS011;37397;53.226;10.400;2022-11-15T16:04:37;11.93;;;7.65;;
51312;SDS011;37397;53.226;10.400;2022-11-15T16:07:04;13.13;;;8.13;;
51312;SDS011;37397;53.226;10.400;2022-11-15T16:09:31;12.90;;;7.43;;
51312;SDS011;37397;53.226;10.400;2022-11-15T16:12:15;12.00;;;7.50;;
51312;SDS011;37397;53.226;10.400;2022-11-15T16:14:42;12.35;;;7.80;;
51312;SDS011;37397;53.226;10.400;2022-11-15T16:17:11;11.45;;;7.70;;
51312;SDS011;37397;53.226;10.400;2022-11-15T16:19:44;12.45;;;6.82;;
51312;SDS011;37397;53.226;10.400;2022-11-15T16:22:10;10.88;;;7.30;;
51312;SDS011;37397;53.226;10.400;2022-11-15T16:24:37;11.57;;;7.57;;
51312;SDS011;37397;53.226;10.400;2022-11-15T16:27:03;11.63;;;7.97;;
51312;SDS011;37397;53.226;10.400;2022-11-15T16:29:30;15.05;;;7.78;;
51312;SDS011;37397;53.226;10.400;2022-11-15T16:31:56;14.18;;;8.45;;
51312;SDS011;37397;53.226;10.400;2022-11-15T16:34:23;11.95;;;8.20;;
51312;SDS011;37397;53.226;10.400;2022-11-15T16:36:55;14.43;;;8.05;;
51312;SDS011;37397;53.226;10.400;2022-11-15T16:39:22;13.50;;;7.88;;
51312;SDS011;37397;53.226;10.400;2022-11-15T16:41:49;13.25;;;8.00;;
51312;SDS011;37397;53.226;10.400;2022-11-15T16:44:15;13.82;;;8.65;;
51312;SDS011;37397;53.226;10.400;2022-11-15T16:46:42;15.13;;;8.57;;
51312;SDS011;37397;53.226;10.400;2022-11-15T16:49:12;17.60;;;8.45;;
51312;SDS011;37397;53.226;10.400;2022-11-15T16:51:40;14.88;;;8.02;;
51312;SDS011;37397;53.226;10.400;2022-11-15T16:54:07;13.52;;;8.30;;
51312;SDS011;37397;53.226;10.400;2022-11-15T16:56:33;14.10;;;9.07;;
51312;SDS011;37397;53.226;10.400;2022-11-15T16:59:00;11.93;;;8.05;;
51312;SDS011;37397;53.226;10.400;2022-11-15T17:01:28;12.75;;;8.60;;
51312;SDS011;37397;53.226;10.400;2022-11-15T17:03:56;11.82;;;8.57;;
51312;SDS011;37397;53.226;10.400;2022-11-15T17:06:23;14.30;;;8.40;;
51312;SDS011;37397;53.226;10.400;2022-11-15T17:08:51;15.85;;;8.95;;
51312;SDS011;37397;53.226;10.400;2022-11-15T17:11:19;13.68;;;8.80;;
51312;SDS011;37397;53.226;10.400;2022-11-15T17:13:47;13.35;;;8.85;;
51312;SDS011;37397;53.226;10.400;2022-11-15T17:16:15;14.30;;;8.45;;
51312;SDS011;37397;53.226;10.400;2022-11-15T17:18:43;12.55;;;7.82;;
51312;SDS011;37397;53.226;10.400;2022-11-15T17:21:14;13.65;;;9.13;;
51312;SDS011;37397;53.226;10.400;2022-11-15T17:23:42;20.15;;;11.75;;
51312;SDS011;37397;53.226;10.400;2022-11-15T17:26:10;19.40;;;13.07;;
51312;SDS011;37397;53.226;10.400;2022-11-15T17:28:55;26.90;;;15.27;;
51312;SDS011;37397;53.226;10.400;2022-11-15T17:31:22;22.80;;;14.65;;
51312;SDS011;37397;53.226;10.400;2022-11-15T17:33:50;22.65;;;14.07;;